Anchorage, Alaska
Current Conditions -  °F | °C
As of 1:53 PM on Thursday 27 Nov 2014 (Local Time) from PANC Reporting Station
Broken Clouds Broken Clouds  
Wind Chill: -11°   Ceiling: 1300
Heat Index: -5°   Visibility: 10mi
Dew Point: -7°   Wind: 9mph
Humidity: 85%   Direction: 40°NE
Pressure: 30.19"   Gusts: NA
Location:  61.16°N, 150.01°W
Report Text: PANC 272253Z 04008KT 10SM FEW003 BKN013 BKN200 M05/M07 A3019 RMK AO2 SLP228 T10501072
Loading
Personal Weather Stations






























Interactive Weather Map New forecast layout! Learn more

10-Day Weather Forecast

Advertisements
Track Severe Weather on mobile